sensor_id;sensor_type;location;lat;lon;timestamp;pressure;altitude;pressure_sealevel;temperature;humidity
20710;BME280;10516;51.518;9.864;2023-01-26T00:01:42;99556.63;;;0.25;81.52
20710;BME280;10516;51.518;9.864;2023-01-26T00:04:09;99546.63;;;0.12;81.36
20710;BME280;10516;51.518;9.864;2023-01-26T00:06:34;99559.53;;;-0.35;83.29
20710;BME280;10516;51.518;9.864;2023-01-26T00:08:59;99546.66;;;0.04;82.44
20710;BME280;10516;51.518;9.864;2023-01-26T00:11:27;99557.59;;;-0.17;82.66
20710;BME280;10516;51.518;9.864;2023-01-26T00:13:57;99550.56;;;0.16;82.01
20710;BME280;10516;51.518;9.864;2023-01-26T00:16:24;99549.09;;;0.14;81.38
20710;BME280;10516;51.518;9.864;2023-01-26T00:18:50;99534.00;;;0.08;81.87
20710;BME280;10516;51.518;9.864;2023-01-26T00:21:20;99556.28;;;-0.95;83.26
20710;BME280;10516;51.518;9.864;2023-01-26T00:23:47;99550.66;;;-0.50;83.63
20710;BME280;10516;51.518;9.864;2023-01-26T00:26:16;99543.34;;;-0.96;85.06
20710;BME280;10516;51.518;9.864;2023-01-26T00:28:41;99537.63;;;-0.18;83.15
20710;BME280;10516;51.518;9.864;2023-01-26T00:31:24;99538.75;;;-0.28;83.09
20710;BME280;10516;51.518;9.864;2023-01-26T00:33:50;99522.00;;;-0.43;82.53
20710;BME280;10516;51.518;9.864;2023-01-26T00:36:16;99522.88;;;-0.03;82.05
20710;BME280;10516;51.518;9.864;2023-01-26T00:38:41;99512.88;;;-0.07;81.65
20710;BME280;10516;51.518;9.864;2023-01-26T00:41:08;99516.28;;;-0.15;82.01
20710;BME280;10516;51.518;9.864;2023-01-26T00:43:33;99523.03;;;0.04;82.17
20710;BME280;10516;51.518;9.864;2023-01-26T00:45:59;99504.25;;;-0.90;83.58
20710;BME280;10516;51.518;9.864;2023-01-26T00:48:24;99480.72;;;-0.33;82.42
20710;BME280;10516;51.518;9.864;2023-01-26T00:50:51;99512.69;;;-0.14;81.44
20710;BME280;10516;51.518;9.864;2023-01-26T00:53:16;99497.59;;;-0.28;81.16
20710;BME280;10516;51.518;9.864;2023-01-26T00:55:42;99494.66;;;-0.17;81.28
20710;BME280;10516;51.518;9.864;2023-01-26T00:58:08;99506.94;;;-0.17;80.92
20710;BME280;10516;51.518;9.864;2023-01-26T01:00:35;99496.94;;;0.11;80.91
20710;BME280;10516;51.518;9.864;2023-01-26T01:03:01;99491.84;;;0.09;80.44
20710;BME280;10516;51.518;9.864;2023-01-26T01:05:28;99491.06;;;-0.08;81.26
20710;BME280;10516;51.518;9.864;2023-01-26T01:07:54;99483.34;;;-0.09;80.86
20710;BME280;10516;51.518;9.864;2023-01-26T01:10:20;99497.28;;;-0.17;80.54
20710;BME280;10516;51.518;9.864;2023-01-26T01:12:45;99486.47;;;-0.30;79.48
20710;BME280;10516;51.518;9.864;2023-01-26T01:15:11;99493.50;;;-0.14;80.54
20710;BME280;10516;51.518;9.864;2023-01-26T01:17:37;99489.88;;;-0.13;79.96
20710;BME280;10516;51.518;9.864;2023-01-26T01:20:07;99490.41;;;-0.42;80.97
20710;BME280;10516;51.518;9.864;2023-01-26T01:22:33;99498.66;;;-0.79;82.47
20710;BME280;10516;51.518;9.864;2023-01-26T01:24:59;99498.22;;;-0.58;82.26
20710;BME280;10516;51.518;9.864;2023-01-26T01:27:24;99499.22;;;-0.35;80.49
20710;BME280;10516;51.518;9.864;2023-01-26T01:29:50;99506.13;;;-0.10;81.08
20710;BME280;10516;51.518;9.864;2023-01-26T01:32:15;99501.53;;;0.09;79.62
20710;BME280;10516;51.518;9.864;2023-01-26T01:34:41;99492.88;;;0.00;79.80
20710;BME280;10516;51.518;9.864;2023-01-26T01:37:06;99499.91;;;-0.17;80.10
20710;BME280;10516;51.518;9.864;2023-01-26T01:39:32;99485.47;;;-0.05;79.41
20710;BME280;10516;51.518;9.864;2023-01-26T01:41:57;99490.25;;;-0.24;79.68
20710;BME280;10516;51.518;9.864;2023-01-26T01:44:24;99490.91;;;-0.22;80.14
20710;BME280;10516;51.518;9.864;2023-01-26T01:47:02;99488.44;;;-0.08;79.04
20710;BME280;10516;51.518;9.864;2023-01-26T01:52:14;99491.22;;;-0.09;79.14
20710;BME280;10516;51.518;9.864;2023-01-26T01:54:52;99482.19;;;-0.15;78.77
20710;BME280;10516;51.518;9.864;2023-01-26T01:57:26;99481.22;;;-0.06;78.76
20710;BME280;10516;51.518;9.864;2023-01-26T02:00:16;99480.06;;;-0.11;79.18
20710;BME280;10516;51.518;9.864;2023-01-26T02:02:43;99483.47;;;-0.67;78.97
20710;BME280;10516;51.518;9.864;2023-01-26T02:05:32;99478.25;;;-0.19;79.16
20710;BME280;10516;51.518;9.864;2023-01-26T02:08:00;99479.91;;;-0.18;79.05
20710;BME280;10516;51.518;9.864;2023-01-26T02:10:27;99475.00;;;-0.29;79.36
20710;BME280;10516;51.518;9.864;2023-01-26T02:12:54;99473.97;;;-0.60;78.65
20710;BME280;10516;51.518;9.864;2023-01-26T02:15:30;99479.06;;;-0.26;79.47
20710;BME280;10516;51.518;9.864;2023-01-26T02:17:56;99476.50;;;-1.08;79.04
20710;BME280;10516;51.518;9.864;2023-01-26T02:20:51;99468.75;;;-0.52;79.89
20710;BME280;10516;51.518;9.864;2023-01-26T02:26:06;99457.47;;;-0.44;79.56
20710;BME280;10516;51.518;9.864;2023-01-26T02:28:32;99449.56;;;-0.52;79.03
20710;BME280;10516;51.518;9.864;2023-01-26T02:30:57;99449.06;;;-0.24;79.22
20710;BME280;10516;51.518;9.864;2023-01-26T02:33:25;99454.00;;;-0.37;78.64
20710;BME280;10516;51.518;9.864;2023-01-26T02:35:51;99458.94;;;-0.18;78.58
20710;BME280;10516;51.518;9.864;2023-01-26T02:38:18;99448.75;;;-0.13;78.59
20710;BME280;10516;51.518;9.864;2023-01-26T02:40:51;99443.19;;;-0.10;78.12
20710;BME280;10516;51.518;9.864;2023-01-26T02:43:17;99436.78;;;-0.15;77.82
20710;BME280;10516;51.518;9.864;2023-01-26T02:45:43;99448.44;;;-0.34;78.76
20710;BME280;10516;51.518;9.864;2023-01-26T02:48:09;99446.47;;;-0.16;78.43
20710;BME280;10516;51.518;9.864;2023-01-26T02:50:35;99425.81;;;-0.35;77.77
20710;BME280;10516;51.518;9.864;2023-01-26T02:53:01;99434.66;;;-0.36;78.48
20710;BME280;10516;51.518;9.864;2023-01-26T02:55:27;99438.94;;;-0.27;78.96
20710;BME280;10516;51.518;9.864;2023-01-26T03:00:25;99435.00;;;-0.39;78.47
20710;BME280;10516;51.518;9.864;2023-01-26T03:02:55;99423.69;;;-0.31;78.31
20710;BME280;10516;51.518;9.864;2023-01-26T03:05:20;99430.88;;;-0.25;78.17
20710;BME280;10516;51.518;9.864;2023-01-26T03:07:46;99440.25;;;-0.23;77.92
20710;BME280;10516;51.518;9.864;2023-01-26T03:10:11;99421.44;;;-1.24;80.21
20710;BME280;10516;51.518;9.864;2023-01-26T03:12:37;99427.19;;;-1.71;82.41
20710;BME280;10516;51.518;9.864;2023-01-26T03:15:04;99436.28;;;-1.41;81.09
20710;BME280;10516;51.518;9.864;2023-01-26T03:17:48;99430.41;;;-0.61;80.60
20710;BME280;10516;51.518;9.864;2023-01-26T03:20:13;99432.16;;;-1.02;79.59
20710;BME280;10516;51.518;9.864;2023-01-26T03:22:57;99427.13;;;-1.79;81.29
20710;BME280;10516;51.518;9.864;2023-01-26T03:25:41;99415.94;;;-1.05;82.09
20710;BME280;10516;51.518;9.864;2023-01-26T03:28:25;99423.34;;;-0.52;80.39
20710;BME280;10516;51.518;9.864;2023-01-26T03:30:53;99412.03;;;-0.85;80.39
20710;BME280;10516;51.518;9.864;2023-01-26T03:33:20;99401.66;;;-1.19;81.17
20710;BME280;10516;51.518;9.864;2023-01-26T03:35:46;99413.38;;;-0.73;80.20
20710;BME280;10516;51.518;9.864;2023-01-26T03:38:11;99407.81;;;-0.62;80.34
20710;BME280;10516;51.518;9.864;2023-01-26T03:40:36;99406.00;;;-0.37;79.39
20710;BME280;10516;51.518;9.864;2023-01-26T03:43:20;99408.13;;;-0.73;80.24
20710;BME280;10516;51.518;9.864;2023-01-26T03:46:05;99393.69;;;-0.45;79.55
20710;BME280;10516;51.518;9.864;2023-01-26T03:48:50;99413.69;;;-0.36;78.98
20710;BME280;10516;51.518;9.864;2023-01-26T03:51:34;99410.59;;;-0.47;79.67
20710;BME280;10516;51.518;9.864;2023-01-26T03:54:18;99386.00;;;-0.46;78.83
20710;BME280;10516;51.518;9.864;2023-01-26T03:57:02;99392.56;;;-0.50;78.94
20710;BME280;10516;51.518;9.864;2023-01-26T03:59:28;99406.50;;;-0.58;78.70
20710;BME280;10516;51.518;9.864;2023-01-26T04:02:10;99401.09;;;-0.48;79.17
20710;BME280;10516;51.518;9.864;2023-01-26T04:04:54;99408.94;;;-0.40;78.76
20710;BME280;10516;51.518;9.864;2023-01-26T04:07:38;99398.94;;;-0.45;78.67
20710;BME280;10516;51.518;9.864;2023-01-26T04:10:23;99396.16;;;-0.43;78.20
20710;BME280;10516;51.518;9.864;2023-01-26T04:12:49;99401.75;;;-0.46;78.74
20710;BME280;10516;51.518;9.864;2023-01-26T04:15:35;99403.72;;;-0.48;79.51
20710;BME280;10516;51.518;9.864;2023-01-26T04:18:19;99408.78;;;-0.39;79.24
20710;BME280;10516;51.518;9.864;2023-01-26T04:21:03;99396.00;;;-0.90;78.68
20710;BME280;10516;51.518;9.864;2023-01-26T04:23:47;99390.91;;;-0.51;79.30
20710;BME280;10516;51.518;9.864;2023-01-26T04:26:13;99393.22;;;-0.40;78.65
20710;BME280;10516;51.518;9.864;2023-01-26T04:28:38;99396.31;;;-0.37;79.18
20710;BME280;10516;51.518;9.864;2023-01-26T04:31:04;99389.97;;;-0.50;79.25
20710;BME280;10516;51.518;9.864;2023-01-26T04:33:29;99399.63;;;-0.51;78.96
20710;BME280;10516;51.518;9.864;2023-01-26T04:35:55;99392.56;;;-0.42;78.89
20710;BME280;10516;51.518;9.864;2023-01-26T04:38:20;99403.56;;;-0.55;78.26
20710;BME280;10516;51.518;9.864;2023-01-26T04:40:52;99388.72;;;-1.28;80.92
20710;BME280;10516;51.518;9.864;2023-01-26T04:43:18;99389.78;;;-0.65;79.73
20710;BME280;10516;51.518;9.864;2023-01-26T04:45:43;99386.66;;;-0.52;78.96
20710;BME280;10516;51.518;9.864;2023-01-26T04:48:11;99381.25;;;-0.75;79.86
20710;BME280;10516;51.518;9.864;2023-01-26T04:50:36;99383.88;;;-0.67;79.59
20710;BME280;10516;51.518;9.864;2023-01-26T04:53:01;99347.47;;;-1.34;80.14
20710;BME280;10516;51.518;9.864;2023-01-26T04:55:27;99377.97;;;-1.59;82.92
20710;BME280;10516;51.518;9.864;2023-01-26T04:57:52;99373.31;;;-2.15;83.96
20710;BME280;10516;51.518;9.864;2023-01-26T05:00:17;99372.50;;;-1.32;83.78
20710;BME280;10516;51.518;9.864;2023-01-26T05:02:44;99379.22;;;-1.29;81.31
20710;BME280;10516;51.518;9.864;2023-01-26T05:05:09;99370.94;;;-2.00;82.95
20710;BME280;10516;51.518;9.864;2023-01-26T05:07:35;99370.94;;;-0.93;82.38
20710;BME280;10516;51.518;9.864;2023-01-26T05:10:00;99371.63;;;-0.74;80.32
20710;BME280;10516;51.518;9.864;2023-01-26T05:12:25;99371.59;;;-0.66;80.04
20710;BME280;10516;51.518;9.864;2023-01-26T05:15:01;99375.03;;;-0.66;80.70
20710;BME280;10516;51.518;9.864;2023-01-26T05:17:26;99377.22;;;-2.19;81.38
20710;BME280;10516;51.518;9.864;2023-01-26T05:19:52;99377.22;;;-1.43;83.04
20710;BME280;10516;51.518;9.864;2023-01-26T05:22:17;99380.91;;;-0.72;80.77
20710;BME280;10516;51.518;9.864;2023-01-26T05:24:42;99367.75;;;-1.28;80.26
20710;BME280;10516;51.518;9.864;2023-01-26T05:27:08;99373.72;;;-0.86;80.27
20710;BME280;10516;51.518;9.864;2023-01-26T05:29:45;99356.84;;;-0.76;79.61
20710;BME280;10516;51.518;9.864;2023-01-26T05:32:11;99363.56;;;-0.73;79.30
20710;BME280;10516;51.518;9.864;2023-01-26T05:34:37;99373.22;;;-0.73;80.25
20710;BME280;10516;51.518;9.864;2023-01-26T05:37:02;99371.13;;;-0.70;79.90
20710;BME280;10516;51.518;9.864;2023-01-26T05:39:27;99352.25;;;-0.65;79.32
20710;BME280;10516;51.518;9.864;2023-01-26T05:41:53;99353.53;;;-1.34;79.83
20710;BME280;10516;51.518;9.864;2023-01-26T05:44:21;99360.31;;;-1.65;80.79
20710;BME280;10516;51.518;9.864;2023-01-26T05:46:47;99366.72;;;-1.60;81.55
20710;BME280;10516;51.518;9.864;2023-01-26T05:49:12;99355.66;;;-1.21;80.93
20710;BME280;10516;51.518;9.864;2023-01-26T05:51:37;99357.00;;;-1.09;82.07
20710;BME280;10516;51.518;9.864;2023-01-26T05:54:03;99358.66;;;-0.68;80.53
20710;BME280;10516;51.518;9.864;2023-01-26T05:56:28;99367.81;;;-0.40;79.54
20710;BME280;10516;51.518;9.864;2023-01-26T05:58:54;99369.44;;;-0.87;79.27
20710;BME280;10516;51.518;9.864;2023-01-26T06:01:19;99376.81;;;-0.34;79.01
20710;BME280;10516;51.518;9.864;2023-01-26T06:03:44;99367.34;;;-0.84;79.13
20710;BME280;10516;51.518;9.864;2023-01-26T06:06:10;99367.19;;;-0.90;80.51
20710;BME280;10516;51.518;9.864;2023-01-26T06:08:35;99366.53;;;-0.60;79.40
20710;BME280;10516;51.518;9.864;2023-01-26T06:11:00;99368.31;;;-0.60;79.69
20710;BME280;10516;51.518;9.864;2023-01-26T06:13:26;99384.31;;;-0.15;79.04
20710;BME280;10516;51.518;9.864;2023-01-26T06:15:51;99387.50;;;-0.60;78.34
20710;BME280;10516;51.518;9.864;2023-01-26T06:18:16;99378.25;;;-0.08;78.71
20710;BME280;10516;51.518;9.864;2023-01-26T06:20:42;99384.56;;;-0.57;78.44
20710;BME280;10516;51.518;9.864;2023-01-26T06:23:07;99395.41;;;-1.34;80.69
20710;BME280;10516;51.518;9.864;2023-01-26T06:25:36;99378.06;;;-1.77;82.12
20710;BME280;10516;51.518;9.864;2023-01-26T06:28:04;99384.56;;;-1.47;82.57
20710;BME280;10516;51.518;9.864;2023-01-26T06:30:30;99395.44;;;-1.68;81.72
20710;BME280;10516;51.518;9.864;2023-01-26T06:32:56;99395.44;;;-1.68;82.96
20710;BME280;10516;51.518;9.864;2023-01-26T06:35:21;99389.34;;;-1.34;83.11
20710;BME280;10516;51.518;9.864;2023-01-26T06:37:50;99386.25;;;-1.80;82.15
20710;BME280;10516;51.518;9.864;2023-01-26T06:40:16;99394.78;;;-1.70;81.87
20710;BME280;10516;51.518;9.864;2023-01-26T06:42:49;99394.03;;;-0.96;82.69
20710;BME280;10516;51.518;9.864;2023-01-26T06:45:15;99388.22;;;-1.40;80.50
20710;BME280;10516;51.518;9.864;2023-01-26T06:47:48;99391.72;;;-0.91;82.80
20710;BME280;10516;51.518;9.864;2023-01-26T06:50:17;99379.47;;;-0.66;81.58
20710;BME280;10516;51.518;9.864;2023-01-26T06:52:46;99394.69;;;-0.54;81.02
20710;BME280;10516;51.518;9.864;2023-01-26T06:55:20;99397.56;;;-1.21;82.19
20710;BME280;10516;51.518;9.864;2023-01-26T06:57:46;99384.13;;;-1.34;80.90
20710;BME280;10516;51.518;9.864;2023-01-26T07:00:12;99386.66;;;-0.85;82.22
20710;BME280;10516;51.518;9.864;2023-01-26T07:02:38;99388.47;;;-0.69;81.15
20710;BME280;10516;51.518;9.864;2023-01-26T07:05:04;99399.22;;;-1.12;81.23
20710;BME280;10516;51.518;9.864;2023-01-26T07:07:30;99388.00;;;-0.72;81.11
20710;BME280;10516;51.518;9.864;2023-01-26T07:09:55;99397.81;;;-0.58;81.35
20710;BME280;10516;51.518;9.864;2023-01-26T07:12:20;99388.41;;;-1.17;81.51
20710;BME280;10516;51.518;9.864;2023-01-26T07:14:46;99390.41;;;-1.03;83.62
20710;BME280;10516;51.518;9.864;2023-01-26T07:17:11;99394.19;;;-0.90;81.88
20710;BME280;10516;51.518;9.864;2023-01-26T07:19:37;99392.72;;;-0.36;80.91
20710;BME280;10516;51.518;9.864;2023-01-26T07:22:02;99386.19;;;-0.40;80.69
20710;BME280;10516;51.518;9.864;2023-01-26T07:24:28;99392.91;;;-0.61;81.66
20710;BME280;10516;51.518;9.864;2023-01-26T07:26:54;99403.53;;;-0.31;80.85
20710;BME280;10516;51.518;9.864;2023-01-26T07:29:20;99402.56;;;-0.54;79.91
20710;BME280;10516;51.518;9.864;2023-01-26T07:31:45;99397.91;;;-1.16;82.61
20710;BME280;10516;51.518;9.864;2023-01-26T07:34:11;99407.13;;;-0.72;82.71
20710;BME280;10516;51.518;9.864;2023-01-26T07:36:37;99406.81;;;-0.37;80.61
20710;BME280;10516;51.518;9.864;2023-01-26T07:39:03;99404.38;;;-0.46;80.95
20710;BME280;10516;51.518;9.864;2023-01-26T07:41:28;99413.53;;;-0.74;81.86
20710;BME280;10516;51.518;9.864;2023-01-26T07:43:54;99411.91;;;-0.35;81.60
20710;BME280;10516;51.518;9.864;2023-01-26T07:46:19;99391.06;;;-0.85;82.64
20710;BME280;10516;51.518;9.864;2023-01-26T07:48:45;99407.31;;;-0.82;82.33
20710;BME280;10516;51.518;9.864;2023-01-26T07:51:10;99409.28;;;-0.35;82.15
20710;BME280;10516;51.518;9.864;2023-01-26T07:53:36;99401.19;;;-0.98;81.68
20710;BME280;10516;51.518;9.864;2023-01-26T07:56:22;99418.59;;;-0.81;82.98
20710;BME280;10516;51.518;9.864;2023-01-26T07:58:53;99396.91;;;-1.31;84.06
20710;BME280;10516;51.518;9.864;2023-01-26T08:01:19;99411.06;;;-0.92;83.62
20710;BME280;10516;51.518;9.864;2023-01-26T08:03:48;99416.81;;;-0.72;82.53
20710;BME280;10516;51.518;9.864;2023-01-26T08:06:14;99420.25;;;-0.32;82.50
20710;BME280;10516;51.518;9.864;2023-01-26T08:08:41;99427.63;;;-0.27;81.35
20710;BME280;10516;51.518;9.864;2023-01-26T08:11:07;99416.81;;;-0.48;81.12
20710;BME280;10516;51.518;9.864;2023-01-26T08:13:33;99412.69;;;-0.35;81.46
20710;BME280;10516;51.518;9.864;2023-01-26T08:16:03;99425.81;;;-0.35;81.16
20710;BME280;10516;51.518;9.864;2023-01-26T08:18:29;99420.22;;;-0.08;81.21
20710;BME280;10516;51.518;9.864;2023-01-26T08:20:55;99422.38;;;-0.43;81.43
20710;BME280;10516;51.518;9.864;2023-01-26T08:23:21;99415.00;;;-0.48;82.19
20710;BME280;10516;51.518;9.864;2023-01-26T08:25:46;99431.22;;;-0.36;82.70
20710;BME280;10516;51.518;9.864;2023-01-26T08:28:12;99427.41;;;-0.98;83.85
20710;BME280;10516;51.518;9.864;2023-01-26T08:30:38;99425.13;;;-0.85;83.13
20710;BME280;10516;51.518;9.864;2023-01-26T08:33:04;99426.50;;;-1.31;84.21
20710;BME280;10516;51.518;9.864;2023-01-26T08:35:33;99436.59;;;-1.86;86.05
20710;BME280;10516;51.518;9.864;2023-01-26T08:37:59;99419.63;;;-1.40;85.69
20710;BME280;10516;51.518;9.864;2023-01-26T08:40:25;99430.22;;;-1.49;84.39
20710;BME280;10516;51.518;9.864;2023-01-26T08:42:51;99435.00;;;-0.31;84.14
20710;BME280;10516;51.518;9.864;2023-01-26T08:45:17;99416.44;;;-0.13;82.09
20710;BME280;10516;51.518;9.864;2023-01-26T08:47:42;99410.19;;;-0.04;81.49
20710;BME280;10516;51.518;9.864;2023-01-26T08:50:10;99417.22;;;0.12;80.91
20710;BME280;10516;51.518;9.864;2023-01-26T08:52:35;99411.09;;;-0.60;83.33
20710;BME280;10516;51.518;9.864;2023-01-26T08:55:01;99421.72;;;-1.43;85.51
20710;BME280;10516;51.518;9.864;2023-01-26T08:57:28;99419.06;;;-1.52;85.15
20710;BME280;10516;51.518;9.864;2023-01-26T08:59:53;99437.59;;;-1.45;86.43
20710;BME280;10516;51.518;9.864;2023-01-26T09:02:19;99420.31;;;-1.64;85.86
20710;BME280;10516;51.518;9.864;2023-01-26T09:04:44;99420.09;;;-0.62;85.53
20710;BME280;10516;51.518;9.864;2023-01-26T09:07:09;99422.63;;;-1.11;85.07
20710;BME280;10516;51.518;9.864;2023-01-26T09:09:35;99426.31;;;-1.79;86.78
20710;BME280;10516;51.518;9.864;2023-01-26T09:12:00;99407.31;;;-1.47;87.37
20710;BME280;10516;51.518;9.864;2023-01-26T09:14:26;99416.31;;;-0.84;86.30
20710;BME280;10516;51.518;9.864;2023-01-26T09:16:52;99413.47;;;0.06;82.90
20710;BME280;10516;51.518;9.864;2023-01-26T09:19:18;99412.66;;;-0.11;83.04
20710;BME280;10516;51.518;9.864;2023-01-26T09:21:43;99411.13;;;0.11;81.45
20710;BME280;10516;51.518;9.864;2023-01-26T09:24:09;99403.88;;;-0.42;83.85
20710;BME280;10516;51.518;9.864;2023-01-26T09:26:34;99412.88;;;-0.44;84.43
20710;BME280;10516;51.518;9.864;2023-01-26T09:29:00;99417.78;;;-0.09;83.80
20710;BME280;10516;51.518;9.864;2023-01-26T09:31:25;99420.22;;;0.47;81.94
20710;BME280;10516;51.518;9.864;2023-01-26T09:33:50;99404.53;;;0.31;80.52
20710;BME280;10516;51.518;9.864;2023-01-26T09:36:16;99403.41;;;0.26;81.30
20710;BME280;10516;51.518;9.864;2023-01-26T09:38:42;99417.78;;;0.38;81.47
20710;BME280;10516;51.518;9.864;2023-01-26T09:44:08;99422.19;;;-0.26;81.97
20710;BME280;10516;51.518;9.864;2023-01-26T09:49:53;99419.72;;;0.52;81.63
20710;BME280;10516;51.518;9.864;2023-01-26T09:52:26;99409.03;;;0.53;80.38
20710;BME280;10516;51.518;9.864;2023-01-26T09:54:54;99415.69;;;0.72;80.02
20710;BME280;10516;51.518;9.864;2023-01-26T09:57:46;99427.59;;;0.44;80.86
20710;BME280;10516;51.518;9.864;2023-01-26T10:00:32;99417.00;;;0.29;81.75
20710;BME280;10516;51.518;9.864;2023-01-26T10:05:47;99418.06;;;0.04;82.09
20710;BME280;10516;51.518;9.864;2023-01-26T10:08:19;99401.75;;;0.25;83.03
20710;BME280;10516;51.518;9.864;2023-01-26T10:10:51;99412.25;;;0.33;82.18
20710;BME280;10516;51.518;9.864;2023-01-26T10:13:17;99409.22;;;-0.03;82.48
20710;BME280;10516;51.518;9.864;2023-01-26T10:15:47;99417.25;;;0.04;81.57
20710;BME280;10516;51.518;9.864;2023-01-26T10:18:22;99411.50;;;0.08;82.58
20710;BME280;10516;51.518;9.864;2023-01-26T10:20:52;99411.88;;;-0.19;82.90
20710;BME280;10516;51.518;9.864;2023-01-26T10:23:32;99405.53;;;0.69;81.92
20710;BME280;10516;51.518;9.864;2023-01-26T10:26:17;99418.28;;;-0.38;82.24
20710;BME280;10516;51.518;9.864;2023-01-26T10:28:44;99411.28;;;0.18;83.75
20710;BME280;10516;51.518;9.864;2023-01-26T10:31:19;99406.19;;;0.32;83.08
20710;BME280;10516;51.518;9.864;2023-01-26T10:33:57;99384.16;;;0.41;83.02
20710;BME280;10516;51.518;9.864;2023-01-26T10:36:24;99372.25;;;0.23;82.49
20710;BME280;10516;51.518;9.864;2023-01-26T10:38:51;99390.84;;;0.44;83.28
20710;BME280;10516;51.518;9.864;2023-01-26T10:41:27;99377.84;;;0.20;82.32
20710;BME280;10516;51.518;9.864;2023-01-26T10:44:01;99377.78;;;0.36;83.75
20710;BME280;10516;51.518;9.864;2023-01-26T10:46:39;99374.97;;;0.68;81.82
20710;BME280;10516;51.518;9.864;2023-01-26T10:51:35;99370.22;;;-0.14;83.00
20710;BME280;10516;51.518;9.864;2023-01-26T10:56:49;99377.53;;;0.15;84.48
20710;BME280;10516;51.518;9.864;2023-01-26T10:59:23;99374.44;;;0.81;82.78
20710;BME280;10516;51.518;9.864;2023-01-26T11:02:35;99361.97;;;0.74;83.03
20710;BME280;10516;51.518;9.864;2023-01-26T11:07:28;99370.25;;;0.63;82.10
20710;BME280;10516;51.518;9.864;2023-01-26T11:09:56;99350.56;;;1.13;81.09
20710;BME280;10516;51.518;9.864;2023-01-26T11:12:24;99350.50;;;1.21;80.43
20710;BME280;10516;51.518;9.864;2023-01-26T11:15:00;99349.31;;;1.23;79.94
20710;BME280;10516;51.518;9.864;2023-01-26T11:17:59;99358.44;;;0.67;80.57
20710;BME280;10516;51.518;9.864;2023-01-26T11:23:18;99355.13;;;1.56;80.48
20710;BME280;10516;51.518;9.864;2023-01-26T11:31:24;99335.28;;;1.83;78.53
20710;BME280;10516;51.518;9.864;2023-01-26T11:34:22;99333.19;;;1.93;78.34
20710;BME280;10516;51.518;9.864;2023-01-26T11:48:24;99306.25;;;1.62;78.08
20710;BME280;10516;51.518;9.864;2023-01-26T11:51:05;99299.97;;;1.77;79.23
20710;BME280;10516;51.518;9.864;2023-01-26T11:56:35;99297.81;;;1.81;77.23
20710;BME280;10516;51.518;9.864;2023-01-26T12:01:50;99298.16;;;1.92;77.61
20710;BME280;10516;51.518;9.864;2023-01-26T12:04:20;99290.19;;;1.57;78.39
20710;BME280;10516;51.518;9.864;2023-01-26T12:06:49;99294.72;;;1.63;79.16
20710;BME280;10516;51.518;9.864;2023-01-26T12:09:36;99304.59;;;1.46;78.57
20710;BME280;10516;51.518;9.864;2023-01-26T12:17:53;99295.53;;;1.92;78.57
20710;BME280;10516;51.518;9.864;2023-01-26T12:23:35;99287.94;;;1.68;78.21
20710;BME280;10516;51.518;9.864;2023-01-26T12:26:01;99277.47;;;1.31;78.79
20710;BME280;10516;51.518;9.864;2023-01-26T12:28:59;99263.88;;;1.42;80.14
20710;BME280;10516;51.518;9.864;2023-01-26T12:31:26;99277.72;;;1.36;78.54
20710;BME280;10516;51.518;9.864;2023-01-26T12:33:54;99270.22;;;1.47;79.76
20710;BME280;10516;51.518;9.864;2023-01-26T12:36:39;99251.72;;;0.66;78.87
20710;BME280;10516;51.518;9.864;2023-01-26T12:47:35;99250.25;;;1.38;79.82
20710;BME280;10516;51.518;9.864;2023-01-26T12:52:39;99258.47;;;1.06;79.96
20710;BME280;10516;51.518;9.864;2023-01-26T12:58:40;99243.19;;;1.24;82.30
20710;BME280;10516;51.518;9.864;2023-01-26T13:06:19;99251.56;;;1.57;80.92
20710;BME280;10516;51.518;9.864;2023-01-26T13:08:58;99248.72;;;1.73;79.26
20710;BME280;10516;51.518;9.864;2023-01-26T13:11:44;99257.06;;;1.91;79.50
20710;BME280;10516;51.518;9.864;2023-01-26T13:19:57;99256.06;;;1.78;79.70
20710;BME280;10516;51.518;9.864;2023-01-26T13:25:13;99256.28;;;1.62;79.86
20710;BME280;10516;51.518;9.864;2023-01-26T13:27:47;99256.06;;;1.78;79.47
20710;BME280;10516;51.518;9.864;2023-01-26T13:32:53;99265.59;;;1.64;80.16
20710;BME280;10516;51.518;9.864;2023-01-26T13:35:21;99267.22;;;1.36;81.13
20710;BME280;10516;51.518;9.864;2023-01-26T13:40:26;99277.66;;;1.59;80.19
20710;BME280;10516;51.518;9.864;2023-01-26T13:43:21;99275.13;;;1.50;81.11
20710;BME280;10516;51.518;9.864;2023-01-26T13:46:13;99265.44;;;1.80;80.16
20710;BME280;10516;51.518;9.864;2023-01-26T13:48:43;99273.84;;;1.76;79.54
20710;BME280;10516;51.518;9.864;2023-01-26T13:51:24;99271.88;;;1.78;79.67
20710;BME280;10516;51.518;9.864;2023-01-26T13:56:27;99262.78;;;1.80;80.31
20710;BME280;10516;51.518;9.864;2023-01-26T13:59:02;99267.41;;;1.49;80.74
20710;BME280;10516;51.518;9.864;2023-01-26T14:01:28;99266.78;;;1.10;80.84
20710;BME280;10516;51.518;9.864;2023-01-26T14:04:05;99264.00;;;1.11;82.54
20710;BME280;10516;51.518;9.864;2023-01-26T14:06:31;99264.69;;;1.42;81.94
20710;BME280;10516;51.518;9.864;2023-01-26T14:08:58;99268.31;;;1.56;80.73
20710;BME280;10516;51.518;9.864;2023-01-26T14:11:27;99263.59;;;1.37;80.56
20710;BME280;10516;51.518;9.864;2023-01-26T14:13:56;99262.44;;;1.54;81.23
20710;BME280;10516;51.518;9.864;2023-01-26T14:16:33;99263.97;;;1.63;80.74
20710;BME280;10516;51.518;9.864;2023-01-26T14:21:50;99259.59;;;1.41;81.29
20710;BME280;10516;51.518;9.864;2023-01-26T14:24:17;99268.94;;;1.73;80.65
20710;BME280;10516;51.518;9.864;2023-01-26T14:26:46;99267.16;;;1.44;81.44
20710;BME280;10516;51.518;9.864;2023-01-26T14:29:20;99260.78;;;1.38;81.36
20710;BME280;10516;51.518;9.864;2023-01-26T14:31:46;99258.34;;;1.51;81.39
20710;BME280;10516;51.518;9.864;2023-01-26T14:34:18;99255.81;;;1.43;81.30
20710;BME280;10516;51.518;9.864;2023-01-26T14:36:44;99252.44;;;1.35;80.97
20710;BME280;10516;51.518;9.864;2023-01-26T14:39:20;99258.06;;;1.46;81.74
20710;BME280;10516;51.518;9.864;2023-01-26T14:41:45;99251.44;;;1.36;81.55
20710;BME280;10516;51.518;9.864;2023-01-26T14:44:14;99258.44;;;1.29;81.34
20710;BME280;10516;51.518;9.864;2023-01-26T14:49:27;99259.94;;;1.23;81.88
20710;BME280;10516;51.518;9.864;2023-01-26T14:51:56;99259.06;;;1.31;81.55
20710;BME280;10516;51.518;9.864;2023-01-26T14:54:31;99273.09;;;1.01;83.71
20710;BME280;10516;51.518;9.864;2023-01-26T14:56:58;99265.31;;;1.30;82.46